createdAt,value
2023-04-11T00:07:25.481Z,99856.22
2023-04-11T00:17:31.279Z,99843.44
2023-04-11T00:27:36.448Z,99813.47
2023-04-11T00:37:44.194Z,99830.16
2023-04-11T00:47:50.420Z,99802.03
2023-04-11T00:57:55.833Z,99808.97
2023-04-11T01:08:01.439Z,99830.13
2023-04-11T01:18:06.341Z,99853.50
2023-04-11T01:28:11.616Z,99889.22
2023-04-11T01:38:15.317Z,99877.25
2023-04-11T01:48:21.839Z,99870.16
2023-04-11T01:58:25.497Z,99868.88
2023-04-11T02:08:30.481Z,99876.28
2023-04-11T02:18:34.098Z,99859.44
2023-04-11T02:28:39.107Z,99876.28
2023-04-11T02:38:42.689Z,99867.03
2023-04-11T02:48:47.726Z,99873.25
2023-04-11T02:58:52.567Z,99882.13
2023-04-11T03:08:58.007Z,99890.97
2023-04-11T03:19:02.075Z,99888.06
2023-04-11T03:29:07.161Z,99866.78
2023-04-11T03:39:10.948Z,99839.50
2023-04-11T03:49:15.993Z,99866.97
2023-04-11T03:59:19.654Z,99896.19
2023-04-11T04:09:24.857Z,99892.75
2023-04-11T04:19:28.617Z,99883.16
2023-04-11T04:29:38.221Z,99893.44
2023-04-11T04:39:42.799Z,99916.75
2023-04-11T04:49:47.842Z,99907.41
2023-04-11T04:59:51.473Z,99931.19
2023-04-11T05:09:56.486Z,99928.13
2023-04-11T05:20:00.476Z,99942.22
2023-04-11T05:30:07.085Z,99931.41
2023-04-11T05:40:11.954Z,99931.75
2023-04-11T05:50:16.973Z,99950.88
2023-04-11T06:00:22.137Z,99958.16
2023-04-11T06:10:27.682Z,99982.47
2023-04-11T06:20:31.516Z,99976.19
2023-04-11T06:30:36.644Z,99980.50
2023-04-11T06:40:40.346Z,99974.56
2023-04-11T06:50:46.388Z,99993.41
2023-04-11T07:00:50.032Z,99991.13
2023-04-11T07:10:55.161Z,99995.91
2023-04-11T07:20:58.896Z,100015.75
2023-04-11T07:31:04.156Z,100011.47
2023-04-11T07:41:09.419Z,100012.50
2023-04-11T07:51:14.784Z,100011.09
2023-04-11T08:01:23.132Z,100011.16
2023-04-11T08:11:28.425Z,100017.84
2023-04-11T08:21:32.270Z,100041.22
2023-04-11T08:31:37.278Z,100033.41
2023-04-11T08:41:41.254Z,100054.34
2023-04-11T08:51:46.846Z,100040.88
2023-04-11T09:01:51.156Z,100043.31
2023-04-11T09:11:56.505Z,100043.81
2023-04-11T09:22:02.464Z,100041.06
2023-04-11T09:32:07.937Z,100057.31
2023-04-11T09:42:25.289Z,100052.66
2023-04-11T09:52:33.530Z,100047.88
2023-04-11T10:02:37.416Z,100056.16
2023-04-11T10:12:43.304Z,100046.63
2023-04-11T10:23:00.814Z,100045.53
2023-04-11T10:33:13.358Z,100051.28
2023-04-11T10:43:21.943Z,100029.94
2023-04-11T10:53:38.444Z,100053.13
2023-04-11T11:03:53.072Z,100037.47
2023-04-11T11:13:58.609Z,100021.19
2023-04-11T11:24:04.459Z,100019.66
2023-04-11T11:44:24.173Z,100028.44
2023-04-11T11:54:29.306Z,100033.16
2023-04-11T12:04:33.906Z,100033.03
2023-04-11T12:14:39.397Z,100014.88
2023-04-11T12:24:43.371Z,100035.50
2023-04-11T12:34:49.663Z,100020.41
2023-04-11T12:44:53.656Z,100018.19
2023-04-11T12:54:59.101Z,100029.38
2023-04-11T13:05:06.428Z,100019.81
2023-04-11T13:15:13.393Z,100025.91
2023-04-11T13:25:17.325Z,100018.97
2023-04-11T13:35:22.461Z,100025.22
2023-04-11T13:45:26.421Z,100004.97
2023-04-11T13:55:31.798Z,100018.34
2023-04-11T14:05:36.654Z,100016.34
2023-04-11T14:15:42.099Z,100015.25
2023-04-11T14:25:46.188Z,100015.94
2023-04-11T14:35:51.726Z,100020.78
2023-04-11T14:45:57.543Z,100012.56
2023-04-11T14:56:06.477Z,100022.00
2023-04-11T15:06:12.171Z,100008.72
2023-04-11T15:16:18.767Z,100019.41
2023-04-11T15:26:23.928Z,100014.31
2023-04-11T15:36:29.697Z,100014.41
2023-04-11T15:46:33.734Z,100007.47
2023-04-11T15:56:38.816Z,100009.03
2023-04-11T16:06:42.762Z,100001.09
2023-04-11T16:16:48.050Z,99995.59
2023-04-11T16:26:51.852Z,99993.59
2023-04-11T16:36:57.514Z,99980.59
2023-04-11T16:47:01.560Z,99974.78
2023-04-11T16:57:06.809Z,99980.50
2023-04-11T17:07:11.160Z,99984.22
2023-04-11T17:17:16.360Z,99972.63
2023-04-11T17:27:20.096Z,99982.41
2023-04-11T17:37:25.572Z,99982.41
2023-04-11T17:47:29.486Z,99989.06
2023-04-11T17:57:34.670Z,100006.25
2023-04-11T18:07:40.839Z,100002.91
2023-04-11T18:17:46.263Z,100020.31
2023-04-11T18:27:50.471Z,100013.25
2023-04-11T18:37:55.922Z,100024.69
2023-04-11T18:48:00.239Z,100026.31
2023-04-11T18:58:08.498Z,100022.00
2023-04-11T19:08:13.198Z,100026.63
2023-04-11T19:18:18.333Z,100007.38
2023-04-11T19:28:22.277Z,100008.09
2023-04-11T19:38:27.369Z,100007.63
2023-04-11T19:48:31.160Z,99996.25
2023-04-11T19:58:36.534Z,99976.06
2023-04-11T20:08:40.923Z,99979.59
2023-04-11T20:18:46.838Z,99976.97
2023-04-11T20:28:50.726Z,99956.69
2023-04-11T20:38:57.854Z,99948.47
2023-04-11T20:49:02.157Z,99946.69
2023-04-11T20:59:09.049Z,99927.25
2023-04-11T21:09:13.293Z,99921.56
2023-04-11T21:19:18.419Z,99900.38
2023-04-11T21:29:22.240Z,99898.63
2023-04-11T21:39:27.316Z,99883.28
2023-04-11T21:49:31.183Z,99879.69
2023-04-11T21:59:36.950Z,99869.34
2023-04-11T22:09:46.165Z,99867.28
2023-04-11T22:19:51.308Z,99841.75
2023-04-11T22:29:56.307Z,99845.56
2023-04-11T22:40:01.703Z,99847.94
2023-04-11T22:50:06.528Z,99832.53
2023-04-11T23:00:16.341Z,99802.63
2023-04-11T23:10:20.210Z,99802.19
2023-04-11T23:20:25.396Z,99782.41
2023-04-11T23:30:29.852Z,99761.88
2023-04-11T23:40:34.864Z,99745.78
2023-04-11T23:50:38.716Z,99719.63
